sensor_id;sensor_type;location;lat;lon;timestamp;pressure;altitude;pressure_sealevel;temperature;humidity
70103;BME280;57470;50.034;15.256;2023-02-27T00:01:32;100054.81;;;0.46;89.38
70103;BME280;57470;50.034;15.256;2023-02-27T00:03:58;100047.03;;;0.44;89.22
70103;BME280;57470;50.034;15.256;2023-02-27T00:06:24;100052.28;;;0.43;88.92
70103;BME280;57470;50.034;15.256;2023-02-27T00:08:50;100055.59;;;0.52;89.15
70103;BME280;57470;50.034;15.256;2023-02-27T00:11:15;100047.94;;;0.42;89.11
70103;BME280;57470;50.034;15.256;2023-02-27T00:13:40;100046.19;;;0.42;88.75
70103;BME280;57470;50.034;15.256;2023-02-27T00:16:06;100045.47;;;0.34;89.32
70103;BME280;57470;50.034;15.256;2023-02-27T00:18:32;100045.53;;;0.28;89.19
70103;BME280;57470;50.034;15.256;2023-02-27T00:20:57;100051.75;;;0.24;89.56
70103;BME280;57470;50.034;15.256;2023-02-27T00:23:23;100051.91;;;0.15;89.08
70103;BME280;57470;50.034;15.256;2023-02-27T00:25:48;100057.31;;;0.03;89.68
70103;BME280;57470;50.034;15.256;2023-02-27T00:28:14;100060.00;;;-0.01;89.36
70103;BME280;57470;50.034;15.256;2023-02-27T00:30:40;100059.34;;;-0.15;89.90
70103;BME280;57470;50.034;15.256;2023-02-27T00:33:06;100060.34;;;-0.23;90.54
70103;BME280;57470;50.034;15.256;2023-02-27T00:35:32;100067.41;;;-0.28;90.56
70103;BME280;57470;50.034;15.256;2023-02-27T00:37:57;100064.69;;;-0.22;90.65
70103;BME280;57470;50.034;15.256;2023-02-27T00:40:22;100068.03;;;-0.13;90.55
70103;BME280;57470;50.034;15.256;2023-02-27T00:42:50;100063.72;;;-0.17;90.46
70103;BME280;57470;50.034;15.256;2023-02-27T00:45:15;100064.53;;;-0.12;90.21
70103;BME280;57470;50.034;15.256;2023-02-27T00:47:41;100066.28;;;-0.12;90.08
70103;BME280;57470;50.034;15.256;2023-02-27T00:50:07;100061.94;;;-0.12;89.84
70103;BME280;57470;50.034;15.256;2023-02-27T00:52:33;100063.06;;;-0.28;89.97
70103;BME280;57470;50.034;15.256;2023-02-27T00:54:59;100073.31;;;-0.17;89.64
70103;BME280;57470;50.034;15.256;2023-02-27T00:57:24;100067.09;;;-0.09;89.75
70103;BME280;57470;50.034;15.256;2023-02-27T00:59:50;100079.31;;;-0.09;89.81
70103;BME280;57470;50.034;15.256;2023-02-27T01:02:15;100075.91;;;-0.14;89.52
70103;BME280;57470;50.034;15.256;2023-02-27T01:04:41;100076.63;;;-0.05;89.65
70103;BME280;57470;50.034;15.256;2023-02-27T01:07:07;100081.88;;;-0.08;89.91
70103;BME280;57470;50.034;15.256;2023-02-27T01:09:33;100071.56;;;-0.15;90.00
70103;BME280;57470;50.034;15.256;2023-02-27T01:11:58;100079.41;;;-0.15;89.66
70103;BME280;57470;50.034;15.256;2023-02-27T01:14:24;100073.44;;;-0.23;90.10
70103;BME280;57470;50.034;15.256;2023-02-27T01:16:49;100074.25;;;-0.20;90.14
70103;BME280;57470;50.034;15.256;2023-02-27T01:19:15;100073.44;;;-0.23;89.98
70103;BME280;57470;50.034;15.256;2023-02-27T01:21:40;100070.81;;;-0.25;90.44
70103;BME280;57470;50.034;15.256;2023-02-27T01:24:07;100074.41;;;-0.30;90.39
70103;BME280;57470;50.034;15.256;2023-02-27T01:26:32;100070.03;;;-0.28;90.78
70103;BME280;57470;50.034;15.256;2023-02-27T01:28:58;100072.56;;;-0.25;90.57
70103;BME280;57470;50.034;15.256;2023-02-27T01:31:23;100078.75;;;-0.28;89.95
70103;BME280;57470;50.034;15.256;2023-02-27T01:33:48;100073.59;;;-0.35;90.14
70103;BME280;57470;50.034;15.256;2023-02-27T01:36:14;100073.69;;;-0.40;90.15
70103;BME280;57470;50.034;15.256;2023-02-27T01:38:39;100083.25;;;-0.39;90.53
70103;BME280;57470;50.034;15.256;2023-02-27T01:41:05;100086.84;;;-0.46;90.77
70103;BME280;57470;50.034;15.256;2023-02-27T01:43:32;100088.47;;;-0.39;90.99
70103;BME280;57470;50.034;15.256;2023-02-27T01:45:58;100084.28;;;-0.51;91.00
70103;BME280;57470;50.034;15.256;2023-02-27T01:51:13;100093.81;;;-0.45;91.24
70103;BME280;57470;50.034;15.256;2023-02-27T01:53:42;100091.94;;;-0.37;90.95
70103;BME280;57470;50.034;15.256;2023-02-27T01:56:13;100107.66;;;-0.40;91.40
70103;BME280;57470;50.034;15.256;2023-02-27T01:58:41;100094.56;;;-0.37;91.51
70103;BME280;57470;50.034;15.256;2023-02-27T02:01:07;100102.44;;;-0.42;91.33
70103;BME280;57470;50.034;15.256;2023-02-27T02:03:38;100103.34;;;-0.44;91.85
70103;BME280;57470;50.034;15.256;2023-02-27T02:06:06;100102.47;;;-0.45;91.54
70103;BME280;57470;50.034;15.256;2023-02-27T02:08:39;100118.88;;;-0.35;91.60
70103;BME280;57470;50.034;15.256;2023-02-27T02:11:06;100120.59;;;-0.31;91.60
70103;BME280;57470;50.034;15.256;2023-02-27T02:13:33;100117.91;;;-0.26;91.62
70103;BME280;57470;50.034;15.256;2023-02-27T02:27:42;100122.75;;;-0.01;91.87
70103;BME280;57470;50.034;15.256;2023-02-27T02:29:54;100125.25;;;0.07;91.81
70103;BME280;57470;50.034;15.256;2023-02-27T02:35:40;100131.25;;;0.14;90.97
70103;BME280;57470;50.034;15.256;2023-02-27T02:41:29;100134.72;;;0.16;90.94
70103;BME280;57470;50.034;15.256;2023-02-27T02:44:14;100139.84;;;0.20;90.90
70103;BME280;57470;50.034;15.256;2023-02-27T02:46:55;100133.75;;;0.20;91.36
70103;BME280;57470;50.034;15.256;2023-02-27T02:49:30;100144.22;;;0.20;91.71
70103;BME280;57470;50.034;15.256;2023-02-27T02:52:05;100142.41;;;0.25;91.35
70103;BME280;57470;50.034;15.256;2023-02-27T02:54:44;100142.31;;;0.29;90.52
70103;BME280;57470;50.034;15.256;2023-02-27T02:57:24;100143.31;;;0.22;90.68
70103;BME280;57470;50.034;15.256;2023-02-27T03:00:17;100147.03;;;0.08;90.62
70103;BME280;57470;50.034;15.256;2023-02-27T03:02:52;100140.94;;;0.09;90.80
70103;BME280;57470;50.034;15.256;2023-02-27T03:05:28;100143.53;;;0.09;90.48
70103;BME280;57470;50.034;15.256;2023-02-27T03:08:01;100149.69;;;0.05;90.55
70103;BME280;57470;50.034;15.256;2023-02-27T03:10:42;100154.03;;;0.07;90.85
70103;BME280;57470;50.034;15.256;2023-02-27T03:13:35;100156.56;;;0.12;91.05
70103;BME280;57470;50.034;15.256;2023-02-27T03:16:38;100159.00;;;0.24;91.48
70103;BME280;57470;50.034;15.256;2023-02-27T03:19:17;100153.78;;;0.21;91.33
70103;BME280;57470;50.034;15.256;2023-02-27T03:21:49;100161.50;;;0.28;91.28
70103;BME280;57470;50.034;15.256;2023-02-27T03:24:22;100162.25;;;0.36;90.77
70103;BME280;57470;50.034;15.256;2023-02-27T03:26:50;100169.31;;;0.33;90.56
70103;BME280;57470;50.034;15.256;2023-02-27T03:29:25;100161.53;;;0.27;90.85
70103;BME280;57470;50.034;15.256;2023-02-27T03:31:56;100172.81;;;0.32;90.63
70103;BME280;57470;50.034;15.256;2023-02-27T03:34:30;100167.59;;;0.30;90.02
70103;BME280;57470;50.034;15.256;2023-02-27T03:40:02;100165.84;;;0.31;90.05
70103;BME280;57470;50.034;15.256;2023-02-27T03:42:53;100172.81;;;0.32;90.17
70103;BME280;57470;50.034;15.256;2023-02-27T03:45:35;100178.03;;;0.32;89.89
70103;BME280;57470;50.034;15.256;2023-02-27T03:48:05;100190.22;;;0.34;89.78
70103;BME280;57470;50.034;15.256;2023-02-27T03:50:34;100180.53;;;0.38;89.77
70103;BME280;57470;50.034;15.256;2023-02-27T03:53:02;100175.16;;;0.49;89.62
70103;BME280;57470;50.034;15.256;2023-02-27T03:55:32;100181.34;;;0.45;89.69
70103;BME280;57470;50.034;15.256;2023-02-27T03:57:59;100185.78;;;0.38;89.96
70103;BME280;57470;50.034;15.256;2023-02-27T04:00:25;100187.47;;;0.44;90.04
70103;BME280;57470;50.034;15.256;2023-02-27T04:02:53;100181.38;;;-0.17;92.47
70103;BME280;57470;50.034;15.256;2023-02-27T04:05:20;100178.09;;;-0.32;92.45
70103;BME280;57470;50.034;15.256;2023-02-27T04:10:40;100186.56;;;-0.15;89.87
70103;BME280;57470;50.034;15.256;2023-02-27T04:21:32;100195.13;;;-0.01;83.22
70103;BME280;57470;50.034;15.256;2023-02-27T04:24:13;100198.38;;;0.13;82.89
70103;BME280;57470;50.034;15.256;2023-02-27T04:26:49;100194.13;;;0.08;82.21
70103;BME280;57470;50.034;15.256;2023-02-27T04:29:30;100196.63;;;0.14;80.54
70103;BME280;57470;50.034;15.256;2023-02-27T04:32:02;100194.16;;;0.03;81.14
70103;BME280;57470;50.034;15.256;2023-02-27T04:37:06;100189.06;;;-0.06;80.65
70103;BME280;57470;50.034;15.256;2023-02-27T04:39:41;100184.72;;;-0.09;79.99
70103;BME280;57470;50.034;15.256;2023-02-27T04:42:16;100184.72;;;-0.07;80.25
70103;BME280;57470;50.034;15.256;2023-02-27T04:44:46;100178.81;;;-0.20;79.61
70103;BME280;57470;50.034;15.256;2023-02-27T04:47:14;100183.16;;;-0.19;80.08
70103;BME280;57470;50.034;15.256;2023-02-27T04:50:15;100184.88;;;-0.18;79.88
70103;BME280;57470;50.034;15.256;2023-02-27T04:52:52;100188.53;;;-0.29;78.79
70103;BME280;57470;50.034;15.256;2023-02-27T04:55:26;100188.44;;;-0.25;79.71
70103;BME280;57470;50.034;15.256;2023-02-27T04:58:16;100184.09;;;-0.26;79.39
70103;BME280;57470;50.034;15.256;2023-02-27T05:00:46;100183.31;;;-0.29;79.58
70103;BME280;57470;50.034;15.256;2023-02-27T05:03:21;100188.25;;;-0.10;79.41
70103;BME280;57470;50.034;15.256;2023-02-27T05:05:51;100185.72;;;-0.16;79.27
70103;BME280;57470;50.034;15.256;2023-02-27T05:11:10;100195.41;;;-0.22;80.16
70103;BME280;57470;50.034;15.256;2023-02-27T05:13:46;100202.47;;;-0.29;79.39
70103;BME280;57470;50.034;15.256;2023-02-27T05:16:19;100204.97;;;-0.21;79.98
70103;BME280;57470;50.034;15.256;2023-02-27T05:18:47;100207.69;;;-0.30;78.68
70103;BME280;57470;50.034;15.256;2023-02-27T05:24:45;100206.75;;;-0.25;80.50
70103;BME280;57470;50.034;15.256;2023-02-27T05:27:50;100206.88;;;-0.34;80.49
70103;BME280;57470;50.034;15.256;2023-02-27T05:33:00;100210.66;;;-0.58;81.72
70103;BME280;57470;50.034;15.256;2023-02-27T05:35:30;100220.22;;;-0.58;82.07
70103;BME280;57470;50.034;15.256;2023-02-27T05:38:12;100219.47;;;-0.69;83.20
70103;BME280;57470;50.034;15.256;2023-02-27T05:40:52;100225.59;;;-0.70;83.76
70103;BME280;57470;50.034;15.256;2023-02-27T05:43:47;100229.16;;;-0.78;84.32
70103;BME280;57470;50.034;15.256;2023-02-27T05:46:21;100229.06;;;-0.68;83.53
70103;BME280;57470;50.034;15.256;2023-02-27T05:48:57;100238.59;;;-0.63;83.88
70103;BME280;57470;50.034;15.256;2023-02-27T05:51:30;100228.16;;;-0.64;84.84
70103;BME280;57470;50.034;15.256;2023-02-27T05:54:06;100232.53;;;-0.69;85.38
70103;BME280;57470;50.034;15.256;2023-02-27T05:56:35;100238.69;;;-0.73;85.28
70103;BME280;57470;50.034;15.256;2023-02-27T05:59:27;100250.78;;;-0.63;85.38
70103;BME280;57470;50.034;15.256;2023-02-27T06:01:55;100248.19;;;-0.66;86.23
70103;BME280;57470;50.034;15.256;2023-02-27T06:04:20;100255.94;;;-0.59;86.33
70103;BME280;57470;50.034;15.256;2023-02-27T06:06:46;100266.34;;;-0.54;86.77
70103;BME280;57470;50.034;15.256;2023-02-27T06:09:12;100263.78;;;-0.60;87.70
70103;BME280;57470;50.034;15.256;2023-02-27T06:11:38;100259.41;;;-0.55;87.64
70103;BME280;57470;50.034;15.256;2023-02-27T06:14:03;100274.13;;;-0.50;87.10
70103;BME280;57470;50.034;15.256;2023-02-27T06:16:29;100269.91;;;-0.61;87.34
70103;BME280;57470;50.034;15.256;2023-02-27T06:18:55;100277.78;;;-0.63;88.35
70103;BME280;57470;50.034;15.256;2023-02-27T06:21:20;100278.59;;;-0.62;88.47
70103;BME280;57470;50.034;15.256;2023-02-27T06:23:46;100285.56;;;-0.60;88.53
70103;BME280;57470;50.034;15.256;2023-02-27T06:26:11;100283.63;;;-0.44;88.53
70103;BME280;57470;50.034;15.256;2023-02-27T06:28:39;100282.72;;;-0.40;88.69
70103;BME280;57470;50.034;15.256;2023-02-27T06:31:05;100283.63;;;-0.44;88.22
70103;BME280;57470;50.034;15.256;2023-02-27T06:33:31;100287.97;;;-0.40;87.92
70103;BME280;57470;50.034;15.256;2023-02-27T06:35:57;100286.19;;;-0.36;87.68
70103;BME280;57470;50.034;15.256;2023-02-27T06:38:22;100282.84;;;-0.49;87.88
70103;BME280;57470;50.034;15.256;2023-02-27T06:40:49;100287.09;;;-0.39;87.53
70103;BME280;57470;50.034;15.256;2023-02-27T06:43:15;100288.59;;;-0.18;87.14
70103;BME280;57470;50.034;15.256;2023-02-27T06:45:40;100293.88;;;-0.26;87.60
70103;BME280;57470;50.034;15.256;2023-02-27T06:48:06;100287.66;;;-0.16;87.24
70103;BME280;57470;50.034;15.256;2023-02-27T06:50:31;100285.03;;;-0.14;87.43
70103;BME280;57470;50.034;15.256;2023-02-27T06:52:56;100288.41;;;-0.06;88.43
70103;BME280;57470;50.034;15.256;2023-02-27T06:55:22;100292.69;;;0.01;88.68
70103;BME280;57470;50.034;15.256;2023-02-27T06:57:49;100290.38;;;-0.22;89.33
70103;BME280;57470;50.034;15.256;2023-02-27T07:00:16;100300.84;;;-0.23;90.12
70103;BME280;57470;50.034;15.256;2023-02-27T07:02:42;100292.00;;;-0.15;90.26
70103;BME280;57470;50.034;15.256;2023-02-27T07:05:08;100297.22;;;-0.13;90.32
70103;BME280;57470;50.034;15.256;2023-02-27T07:07:35;100307.81;;;-0.24;90.29
70103;BME280;57470;50.034;15.256;2023-02-27T07:10:01;100306.03;;;-0.20;90.43
70103;BME280;57470;50.034;15.256;2023-02-27T07:12:26;100309.66;;;-0.35;90.48
70103;BME280;57470;50.034;15.256;2023-02-27T07:14:51;100306.81;;;-0.14;90.59
70103;BME280;57470;50.034;15.256;2023-02-27T07:17:17;100310.31;;;-0.15;90.30
70103;BME280;57470;50.034;15.256;2023-02-27T07:19:42;100311.34;;;-0.28;90.30
70103;BME280;57470;50.034;15.256;2023-02-27T07:22:09;100311.91;;;0.00;90.01
70103;BME280;57470;50.034;15.256;2023-02-27T07:24:35;100310.19;;;-0.03;89.66
70103;BME280;57470;50.034;15.256;2023-02-27T07:27:00;100323.25;;;-0.03;89.78
70103;BME280;57470;50.034;15.256;2023-02-27T07:29:26;100322.44;;;-0.08;90.11
70103;BME280;57470;50.034;15.256;2023-02-27T07:31:51;100316.28;;;-0.02;90.18
70103;BME280;57470;50.034;15.256;2023-02-27T07:34:16;100316.94;;;0.14;90.25
70103;BME280;57470;50.034;15.256;2023-02-27T07:36:42;100323.91;;;0.15;89.68
70103;BME280;57470;50.034;15.256;2023-02-27T07:39:08;100323.69;;;0.31;89.57
70103;BME280;57470;50.034;15.256;2023-02-27T07:41:34;100334.19;;;0.27;89.13
70103;BME280;57470;50.034;15.256;2023-02-27T07:44:00;100337.00;;;0.13;89.13
70103;BME280;57470;50.034;15.256;2023-02-27T07:46:25;100333.50;;;0.16;89.17
70103;BME280;57470;50.034;15.256;2023-02-27T07:48:52;100322.97;;;0.19;89.43
70103;BME280;57470;50.034;15.256;2023-02-27T07:51:17;100331.84;;;0.07;89.33
70103;BME280;57470;50.034;15.256;2023-02-27T07:53:42;100338.50;;;0.32;89.35
70103;BME280;57470;50.034;15.256;2023-02-27T07:56:08;100338.72;;;0.16;89.30
70103;BME280;57470;50.034;15.256;2023-02-27T07:58:33;100330.66;;;0.31;88.87
70103;BME280;57470;50.034;15.256;2023-02-27T08:00:59;100338.34;;;0.45;88.04
70103;BME280;57470;50.034;15.256;2023-02-27T08:03:24;100338.25;;;0.51;87.76
70103;BME280;57470;50.034;15.256;2023-02-27T08:05:50;100343.16;;;0.72;86.89
70103;BME280;57470;50.034;15.256;2023-02-27T08:08:15;100346.13;;;0.48;85.42
70103;BME280;57470;50.034;15.256;2023-02-27T08:10:40;100340.72;;;0.61;85.32
70103;BME280;57470;50.034;15.256;2023-02-27T08:13:06;100347.50;;;0.74;85.67
70103;BME280;57470;50.034;15.256;2023-02-27T08:15:31;100342.00;;;0.91;85.15
70103;BME280;57470;50.034;15.256;2023-02-27T08:17:57;100338.41;;;0.98;84.45
70103;BME280;57470;50.034;15.256;2023-02-27T08:20:22;100341.72;;;1.08;83.53
70103;BME280;57470;50.034;15.256;2023-02-27T08:22:48;100342.69;;;1.02;83.55
70103;BME280;57470;50.034;15.256;2023-02-27T08:25:14;100339.91;;;1.13;83.85
70103;BME280;57470;50.034;15.256;2023-02-27T08:27:40;100342.13;;;1.36;83.86
70103;BME280;57470;50.034;15.256;2023-02-27T08:30:07;100339.47;;;1.39;83.52
70103;BME280;57470;50.034;15.256;2023-02-27T08:32:35;100343.28;;;1.20;82.78
70103;BME280;57470;50.034;15.256;2023-02-27T08:35:01;100327.81;;;1.06;83.12
70103;BME280;57470;50.034;15.256;2023-02-27T08:37:27;100341.09;;;1.44;82.61
70103;BME280;57470;50.034;15.256;2023-02-27T08:39:53;100345.94;;;1.67;82.30
70103;BME280;57470;50.034;15.256;2023-02-27T08:42:18;100341.66;;;1.62;81.78
70103;BME280;57470;50.034;15.256;2023-02-27T08:44:43;100340.63;;;1.70;81.58
70103;BME280;57470;50.034;15.256;2023-02-27T08:47:09;100349.69;;;2.00;81.66
70103;BME280;57470;50.034;15.256;2023-02-27T08:49:34;100340.78;;;2.07;80.76
70103;BME280;57470;50.034;15.256;2023-02-27T08:52:00;100352.44;;;1.94;80.10
70103;BME280;57470;50.034;15.256;2023-02-27T08:54:25;100351.38;;;2.04;78.72
70103;BME280;57470;50.034;15.256;2023-02-27T08:56:51;100346.84;;;2.11;78.68
70103;BME280;57470;50.034;15.256;2023-02-27T08:59:16;100352.91;;;2.14;77.93
70103;BME280;57470;50.034;15.256;2023-02-27T09:01:42;100356.75;;;1.97;77.65
70103;BME280;57470;50.034;15.256;2023-02-27T09:04:08;100354.31;;;2.31;78.36
70103;BME280;57470;50.034;15.256;2023-02-27T09:06:34;100358.19;;;2.54;77.97
70103;BME280;57470;50.034;15.256;2023-02-27T09:09:00;100354.81;;;2.48;76.20
70103;BME280;57470;50.034;15.256;2023-02-27T09:11:26;100360.50;;;2.68;77.16
70103;BME280;57470;50.034;15.256;2023-02-27T09:13:53;100355.69;;;2.48;76.23
70103;BME280;57470;50.034;15.256;2023-02-27T09:16:20;100361.63;;;2.56;75.44
70103;BME280;57470;50.034;15.256;2023-02-27T09:18:45;100360.97;;;2.47;74.83
70103;BME280;57470;50.034;15.256;2023-02-27T09:21:11;100361.28;;;2.72;74.99
70103;BME280;57470;50.034;15.256;2023-02-27T09:23:37;100367.25;;;2.78;75.78
70103;BME280;57470;50.034;15.256;2023-02-27T09:26:02;100365.31;;;2.48;75.28
70103;BME280;57470;50.034;15.256;2023-02-27T09:28:29;100364.28;;;2.55;76.38
70103;BME280;57470;50.034;15.256;2023-02-27T09:30:59;100362.69;;;2.48;75.71
70103;BME280;57470;50.034;15.256;2023-02-27T09:33:25;100370.38;;;2.57;76.41
70103;BME280;57470;50.034;15.256;2023-02-27T09:35:52;100363.94;;;3.09;76.42
70103;BME280;57470;50.034;15.256;2023-02-27T09:38:18;100367.22;;;2.80;74.80
70103;BME280;57470;50.034;15.256;2023-02-27T09:40:43;100370.09;;;3.08;74.96
70103;BME280;57470;50.034;15.256;2023-02-27T09:43:18;100374.22;;;3.18;74.30
70103;BME280;57470;50.034;15.256;2023-02-27T09:45:46;100365.59;;;2.76;73.40
70103;BME280;57470;50.034;15.256;2023-02-27T09:51:02;100371.97;;;3.38;74.64
70103;BME280;57470;50.034;15.256;2023-02-27T09:56:08;100369.91;;;3.15;72.04
70103;BME280;57470;50.034;15.256;2023-02-27T10:09:40;100376.13;;;2.74;70.01
70103;BME280;57470;50.034;15.256;2023-02-27T10:12:26;100377.22;;;2.64;69.17
70103;BME280;57470;50.034;15.256;2023-02-27T10:15:09;100381.28;;;2.39;70.37
70103;BME280;57470;50.034;15.256;2023-02-27T10:17:40;100382.91;;;2.43;70.21
70103;BME280;57470;50.034;15.256;2023-02-27T10:20:16;100381.72;;;2.59;69.60
70103;BME280;57470;50.034;15.256;2023-02-27T10:22:44;100380.75;;;2.61;68.55
70103;BME280;57470;50.034;15.256;2023-02-27T10:25:15;100378.69;;;2.77;68.69
70103;BME280;57470;50.034;15.256;2023-02-27T10:27:48;100377.16;;;2.25;68.72
70103;BME280;57470;50.034;15.256;2023-02-27T10:30:27;100384.44;;;2.94;70.67
70103;BME280;57470;50.034;15.256;2023-02-27T10:33:07;100383.41;;;2.60;69.93
70103;BME280;57470;50.034;15.256;2023-02-27T10:35:37;100380.19;;;2.87;71.16
70103;BME280;57470;50.034;15.256;2023-02-27T10:38:38;100381.91;;;2.88;69.70
70103;BME280;57470;50.034;15.256;2023-02-27T10:41:06;100377.50;;;3.27;68.97
70103;BME280;57470;50.034;15.256;2023-02-27T10:43:34;100374.03;;;3.25;68.97
70103;BME280;57470;50.034;15.256;2023-02-27T10:46:11;100371.97;;;3.38;67.29
70103;BME280;57470;50.034;15.256;2023-02-27T10:48:37;100382.84;;;3.58;68.36
70103;BME280;57470;50.034;15.256;2023-02-27T10:51:22;100372.69;;;3.09;70.41
70103;BME280;57470;50.034;15.256;2023-02-27T10:53:49;100371.41;;;3.25;69.61
70103;BME280;57470;50.034;15.256;2023-02-27T10:56:25;100368.22;;;3.48;68.04
70103;BME280;57470;50.034;15.256;2023-02-27T10:59:50;100367.00;;;3.26;68.71
70103;BME280;57470;50.034;15.256;2023-02-27T11:04:48;100361.63;;;3.98;69.04
70103;BME280;57470;50.034;15.256;2023-02-27T11:07:25;100362.78;;;3.54;68.80
70103;BME280;57470;50.034;15.256;2023-02-27T11:12:38;100358.66;;;4.10;68.10
70103;BME280;57470;50.034;15.256;2023-02-27T11:17:38;100361.25;;;3.80;67.00
70103;BME280;57470;50.034;15.256;2023-02-27T11:20:05;100360.97;;;3.90;67.47
70103;BME280;57470;50.034;15.256;2023-02-27T11:23:01;100365.75;;;3.05;69.15
70103;BME280;57470;50.034;15.256;2023-02-27T11:25:27;100357.84;;;3.42;66.37
70103;BME280;57470;50.034;15.256;2023-02-27T11:28:12;100362.47;;;3.99;66.52
70103;BME280;57470;50.034;15.256;2023-02-27T11:30:37;100363.16;;;3.74;66.07
70103;BME280;57470;50.034;15.256;2023-02-27T11:33:03;100360.09;;;3.90;65.79
70103;BME280;57470;50.034;15.256;2023-02-27T11:35:31;100353.59;;;3.70;65.73
70103;BME280;57470;50.034;15.256;2023-02-27T11:38:05;100363.19;;;3.73;67.53
70103;BME280;57470;50.034;15.256;2023-02-27T11:40:38;100350.34;;;3.27;67.76
70103;BME280;57470;50.034;15.256;2023-02-27T11:45:43;100360.88;;;3.25;67.60
70103;BME280;57470;50.034;15.256;2023-02-27T11:48:24;100358.91;;;3.35;66.84
70103;BME280;57470;50.034;15.256;2023-02-27T11:53:41;100351.03;;;3.67;66.45
70103;BME280;57470;50.034;15.256;2023-02-27T11:56:16;100355.75;;;3.56;68.28
70103;BME280;57470;50.034;15.256;2023-02-27T11:58:49;100352.63;;;3.40;69.02
70103;BME280;57470;50.034;15.256;2023-02-27T12:01:24;100355.13;;;3.45;69.74
70103;BME280;57470;50.034;15.256;2023-02-27T12:04:08;100351.88;;;3.35;69.14
70103;BME280;57470;50.034;15.256;2023-02-27T12:07:00;100365.53;;;3.84;70.03
70103;BME280;57470;50.034;15.256;2023-02-27T12:09:37;100352.50;;;3.45;69.06
70103;BME280;57470;50.034;15.256;2023-02-27T12:12:10;100362.97;;;3.48;68.52
70103;BME280;57470;50.034;15.256;2023-02-27T12:14:45;100357.00;;;3.75;65.30
70103;BME280;57470;50.034;15.256;2023-02-27T12:17:35;100368.00;;;3.22;64.39
70103;BME280;57470;50.034;15.256;2023-02-27T12:20:31;100357.97;;;3.37;65.60
70103;BME280;57470;50.034;15.256;2023-02-27T12:23:00;100366.09;;;2.91;69.31
70103;BME280;57470;50.034;15.256;2023-02-27T12:26:22;100369.88;;;2.78;70.08
70103;BME280;57470;50.034;15.256;2023-02-27T12:28:53;100362.63;;;2.89;70.97
70103;BME280;57470;50.034;15.256;2023-02-27T12:34:17;100354.03;;;3.54;69.40
70103;BME280;57470;50.034;15.256;2023-02-27T12:36:44;100351.19;;;2.92;70.39
70103;BME280;57470;50.034;15.256;2023-02-27T12:39:18;100352.44;;;3.48;69.15
70103;BME280;57470;50.034;15.256;2023-02-27T12:42:01;100352.13;;;3.93;67.93
70103;BME280;57470;50.034;15.256;2023-02-27T12:47:41;100362.41;;;4.90;66.13
70103;BME280;57470;50.034;15.256;2023-02-27T12:55:47;100339.72;;;4.57;65.39
70103;BME280;57470;50.034;15.256;2023-02-27T12:58:34;100342.22;;;4.61;66.68
70103;BME280;57470;50.034;15.256;2023-02-27T13:01:37;100340.88;;;3.86;66.74
70103;BME280;57470;50.034;15.256;2023-02-27T13:09:31;100340.09;;;4.44;65.53
70103;BME280;57470;50.034;15.256;2023-02-27T13:12:28;100336.22;;;3.65;63.39
70103;BME280;57470;50.034;15.256;2023-02-27T13:17:51;100340.31;;;4.66;63.56
70103;BME280;57470;50.034;15.256;2023-02-27T13:20:38;100338.78;;;4.87;63.77
70103;BME280;57470;50.034;15.256;2023-02-27T13:26:33;100351.34;;;3.89;64.85
70103;BME280;57470;50.034;15.256;2023-02-27T13:29:00;100354.00;;;3.88;65.33
70103;BME280;57470;50.034;15.256;2023-02-27T13:31:32;100359.03;;;3.30;68.06
70103;BME280;57470;50.034;15.256;2023-02-27T13:34:12;100360.66;;;2.99;70.16
70103;BME280;57470;50.034;15.256;2023-02-27T13:36:43;100361.78;;;2.87;70.93
70103;BME280;57470;50.034;15.256;2023-02-27T13:42:01;100352.91;;;2.94;71.89
70103;BME280;57470;50.034;15.256;2023-02-27T13:46:53;100350.09;;;3.02;70.42
70103;BME280;57470;50.034;15.256;2023-02-27T13:51:46;100347.09;;;3.16;70.02
70103;BME280;57470;50.034;15.256;2023-02-27T13:56:38;100347.53;;;2.97;69.66
70103;BME280;57470;50.034;15.256;2023-02-27T13:59:22;100340.06;;;2.81;68.06
70103;BME280;57470;50.034;15.256;2023-02-27T14:04:23;100346.44;;;3.08;67.93
70103;BME280;57470;50.034;15.256;2023-02-27T14:06:56;100342.16;;;3.04;68.06
70103;BME280;57470;50.034;15.256;2023-02-27T14:09:22;100346.66;;;3.34;67.48
70103;BME280;57470;50.034;15.256;2023-02-27T14:11:57;100346.44;;;3.08;67.05
70103;BME280;57470;50.034;15.256;2023-02-27T14:14:45;100352.25;;;3.22;66.65
70103;BME280;57470;50.034;15.256;2023-02-27T14:17:13;100350.50;;;3.21;66.36
70103;BME280;57470;50.034;15.256;2023-02-27T14:19:58;100344.47;;;3.16;65.93
70103;BME280;57470;50.034;15.256;2023-02-27T14:22:37;100351.41;;;3.20;66.67
70103;BME280;57470;50.034;15.256;2023-02-27T14:25:29;100348.84;;;3.51;66.03
70103;BME280;57470;50.034;15.256;2023-02-27T14:27:57;100348.53;;;3.95;65.60
70103;BME280;57470;50.034;15.256;2023-02-27T14:30:25;100347.63;;;3.96;64.12
70103;BME280;57470;50.034;15.256;2023-02-27T14:32:56;100340.53;;;4.00;64.34
70103;BME280;57470;50.034;15.256;2023-02-27T14:35:23;100340.44;;;3.70;62.87
70103;BME280;57470;50.034;15.256;2023-02-27T14:37:51;100344.72;;;3.74;63.55
70103;BME280;57470;50.034;15.256;2023-02-27T14:40:26;100345.41;;;3.49;63.54
70103;BME280;57470;50.034;15.256;2023-02-27T14:43:16;100350.06;;;3.71;63.79
70103;BME280;57470;50.034;15.256;2023-02-27T14:45:39;100351.41;;;3.54;63.50
70103;BME280;57470;50.034;15.256;2023-02-27T14:48:08;100361.94;;;3.54;64.58
70103;BME280;57470;50.034;15.256;2023-02-27T14:50:38;100355.00;;;3.50;64.70
70103;BME280;57470;50.034;15.256;2023-02-27T14:53:05;100358.94;;;3.33;62.25
70103;BME280;57470;50.034;15.256;2023-02-27T14:55:33;100361.72;;;3.61;62.97
70103;BME280;57470;50.034;15.256;2023-02-27T14:58:13;100363.59;;;3.22;61.37